Decatur, IL (62521)

3:57 PM CST on December 27, 2014 (GMT -0600)
Sandhill Dr. | Change Station
CLOSE
Current Station
Personal Weather Station
Location: Decatur, IL
Elevation: 676 ft
Nearby Weather Stations

Elev 676 ft 39.82 °N, 88.92 °W | Updated 2 seconds ago

Rain
Rain
36.9 °F
Feels Like 32 °F
N
6.7
Wind Variable Wind from WNW
Gusts 6.7 mph

Today
High -- | Low -- °F
--% Chance of Precip.
Yesterday
High -- | Low -- °F
Precip. -- in
7:15 AM 4:37 PM
Waxing Crescent, 40% visible
Pressure 30.11 in
Visibility 10.0 miles
Clouds Mostly Cloudy 1200 ft
Mostly Cloudy 1700 ft
Overcast 8500 ft
Windchill 32 °F
Dew Point 36 °F
Humidity 96%
Rainfall 0.11 in
Snow Depth Not available.
UV 0 out of 12
Pollen .10 out of 12
Air Quality Not available.
Flu Activity Not available.
SPECI KDEC 272122Z 30011KT 10SM BKN012 BKN017 OVC085 03/01 A3011 RMK AO2 RAE07 P0000 T00330011

More Conditions Fewer Conditions

Pressure 30.11 in
Visibility 10.0 miles
Clouds Mostly Cloudy 1200 ft
Mostly Cloudy 1700 ft
Overcast 8500 ft
Windchill 32 °F
Dew Point 36 °F
Humidity 96%
Rainfall 0.11 in
Snow Depth Not available.
UV 0 out of 12
Pollen .10 out of 12
Air Quality Not available.
Flu Activity Not available.
SPECI KDEC 272122Z 30011KT 10SM BKN012 BKN017 OVC085 03/01 A3011 RMK AO2 RAE07 P0000 T00330011

More Conditions Fewer Conditions

10-Day Weather Forecast

Almanac

Astronomy

Dec. 27, 2014 Rise Set
Actual Time
Civil Twilight
Nautical Twilight
Astronomical Twilight
Moon
Length of Visible Light
Length of Day
Tomorrow will be .
, % of the Moon is Illuminated

Today's Extremes

State Highs State Lows

Community

WunderPhotos

Upload Photos

1,781,073 photos uploaded!

WunderBlogs® & News

Nearby

Air Quality

  Air Quality AQ Index Pollutant
Not available.

Snow Depth

Station Depth Elevation

Earthquake Activity

City Distance Mag. Time & Date
Minimum magnitude displayed is 2.5.

Coastal Water Temperatures

Place Temperature

Nearby Weather Stations